sensor_id;sensor_type;location;lat;lon;timestamp;pressure;altitude;pressure_sealevel;temperature;humidity
84501;BME280;74725;44.210;17.906;2024-03-02T00:00:08;97303.72;;;11.70;82.03
84501;BME280;74725;44.210;17.906;2024-03-02T00:02:43;97306.59;;;11.66;82.20
84501;BME280;74725;44.210;17.906;2024-03-02T00:05:20;97301.69;;;11.61;82.54
84501;BME280;74725;44.210;17.906;2024-03-02T00:07:51;97306.06;;;11.49;83.96
84501;BME280;74725;44.210;17.906;2024-03-02T00:10:20;97305.94;;;11.53;84.10
84501;BME280;74725;44.210;17.906;2024-03-02T00:12:50;97298.47;;;11.54;84.13
84501;BME280;74725;44.210;17.906;2024-03-02T00:17:59;97310.22;;;11.54;84.53
84501;BME280;74725;44.210;17.906;2024-03-02T00:20:25;97310.84;;;11.58;83.68
84501;BME280;74725;44.210;17.906;2024-03-02T00:23:03;97307.34;;;11.58;83.53
84501;BME280;74725;44.210;17.906;2024-03-02T00:25:39;97304.75;;;11.54;83.41
84501;BME280;74725;44.210;17.906;2024-03-02T00:28:35;97316.91;;;11.53;83.17
84501;BME280;74725;44.210;17.906;2024-03-02T00:31:08;97316.72;;;11.47;84.43
84501;BME280;74725;44.210;17.906;2024-03-02T00:33:44;97311.38;;;11.44;84.29
84501;BME280;74725;44.210;17.906;2024-03-02T00:36:12;97313.38;;;11.43;84.39
84501;BME280;74725;44.210;17.906;2024-03-02T00:38:49;97319.00;;;11.49;84.27
84501;BME280;74725;44.210;17.906;2024-03-02T00:41:22;97311.41;;;11.53;84.76
84501;BME280;74725;44.210;17.906;2024-03-02T00:44:02;97316.72;;;11.47;84.54
84501;BME280;74725;44.210;17.906;2024-03-02T00:46:36;97316.38;;;11.36;85.04
84501;BME280;74725;44.210;17.906;2024-03-02T00:49:11;97316.34;;;11.27;86.51
84501;BME280;74725;44.210;17.906;2024-03-02T00:51:39;97310.47;;;11.16;87.38
84501;BME280;74725;44.210;17.906;2024-03-02T00:54:07;97321.44;;;11.16;86.93
84501;BME280;74725;44.210;17.906;2024-03-02T00:56:33;97309.22;;;11.08;86.83
84501;BME280;74725;44.210;17.906;2024-03-02T00:59:00;97314.50;;;11.02;87.18
84501;BME280;74725;44.210;17.906;2024-03-02T01:01:25;97310.03;;;10.95;87.76
84501;BME280;74725;44.210;17.906;2024-03-02T01:03:52;97320.69;;;10.93;88.64
84501;BME280;74725;44.210;17.906;2024-03-02T01:06:18;97312.41;;;10.84;88.71
84501;BME280;74725;44.210;17.906;2024-03-02T01:08:44;97318.19;;;10.86;88.56
84501;BME280;74725;44.210;17.906;2024-03-02T01:11:10;97325.19;;;10.87;88.26
84501;BME280;74725;44.210;17.906;2024-03-02T01:13:36;97327.41;;;10.80;89.08
84501;BME280;74725;44.210;17.906;2024-03-02T01:16:01;97319.22;;;10.80;89.08
84501;BME280;74725;44.210;17.906;2024-03-02T01:18:28;97324.94;;;10.72;90.08
84501;BME280;74725;44.210;17.906;2024-03-02T01:20:53;97327.75;;;10.82;90.45
84501;BME280;74725;44.210;17.906;2024-03-02T01:23:23;97322.38;;;10.56;90.68
84501;BME280;74725;44.210;17.906;2024-03-02T01:25:49;97322.34;;;10.69;90.37
84501;BME280;74725;44.210;17.906;2024-03-02T01:28:14;97324.56;;;10.61;90.56
84501;BME280;74725;44.210;17.906;2024-03-02T01:30:40;97324.00;;;10.66;92.23
84501;BME280;74725;44.210;17.906;2024-03-02T01:33:06;97321.81;;;10.61;91.26
84501;BME280;74725;44.210;17.906;2024-03-02T01:35:32;97315.31;;;10.68;91.77
84501;BME280;74725;44.210;17.906;2024-03-02T01:37:58;97314.56;;;10.67;90.68
84501;BME280;74725;44.210;17.906;2024-03-02T01:40:24;97321.13;;;10.70;90.32
84501;BME280;74725;44.210;17.906;2024-03-02T01:42:53;97317.09;;;10.62;90.00
84501;BME280;74725;44.210;17.906;2024-03-02T01:45:23;97319.50;;;10.60;90.06
84501;BME280;74725;44.210;17.906;2024-03-02T01:47:49;97317.59;;;10.47;90.52
84501;BME280;74725;44.210;17.906;2024-03-02T01:50:15;97326.44;;;10.51;91.17
84501;BME280;74725;44.210;17.906;2024-03-02T01:52:40;97320.66;;;10.49;90.64
84501;BME280;74725;44.210;17.906;2024-03-02T01:55:06;97315.84;;;10.41;90.99
84501;BME280;74725;44.210;17.906;2024-03-02T01:57:35;97315.22;;;10.37;91.20
84501;BME280;74725;44.210;17.906;2024-03-02T02:00:01;97317.75;;;10.31;90.76
84501;BME280;74725;44.210;17.906;2024-03-02T02:02:37;97316.44;;;10.23;91.02
84501;BME280;74725;44.210;17.906;2024-03-02T02:05:03;97306.94;;;10.27;90.65
84501;BME280;74725;44.210;17.906;2024-03-02T02:07:29;97304.94;;;10.28;92.46
84501;BME280;74725;44.210;17.906;2024-03-02T02:09:55;97309.97;;;10.29;90.68
84501;BME280;74725;44.210;17.906;2024-03-02T02:12:20;97309.09;;;10.20;91.02
84501;BME280;74725;44.210;17.906;2024-03-02T02:14:49;97314.28;;;10.05;91.69
84501;BME280;74725;44.210;17.906;2024-03-02T02:17:18;97310.25;;;9.97;92.17
84501;BME280;74725;44.210;17.906;2024-03-02T02:19:44;97312.31;;;10.05;91.67
84501;BME280;74725;44.210;17.906;2024-03-02T02:22:10;97314.84;;;10.00;92.09
84501;BME280;74725;44.210;17.906;2024-03-02T02:24:39;97311.69;;;9.89;93.14
84501;BME280;74725;44.210;17.906;2024-03-02T02:27:05;97314.06;;;9.87;92.93
84501;BME280;74725;44.210;17.906;2024-03-02T02:29:31;97322.84;;;9.82;93.59
84501;BME280;74725;44.210;17.906;2024-03-02T02:31:56;97321.22;;;9.84;92.97
84501;BME280;74725;44.210;17.906;2024-03-02T02:34:22;97321.75;;;9.79;92.82
84501;BME280;74725;44.210;17.906;2024-03-02T02:36:48;97317.16;;;9.76;92.88
84501;BME280;74725;44.210;17.906;2024-03-02T02:39:15;97320.09;;;9.82;92.52
84501;BME280;74725;44.210;17.906;2024-03-02T02:41:42;97324.16;;;9.77;92.27
84501;BME280;74725;44.210;17.906;2024-03-02T02:44:08;97313.22;;;9.77;94.51
84501;BME280;74725;44.210;17.906;2024-03-02T02:46:34;97332.03;;;9.75;94.68
84501;BME280;74725;44.210;17.906;2024-03-02T02:48:59;97328.63;;;9.71;94.58
84501;BME280;74725;44.210;17.906;2024-03-02T02:51:25;97326.34;;;9.69;93.98
84501;BME280;74725;44.210;17.906;2024-03-02T02:53:51;97327.88;;;9.58;93.76
84501;BME280;74725;44.210;17.906;2024-03-02T02:56:16;97328.19;;;9.60;94.25
84501;BME280;74725;44.210;17.906;2024-03-02T02:58:42;97330.81;;;9.50;94.51
84501;BME280;74725;44.210;17.906;2024-03-02T03:01:08;97328.09;;;9.50;94.52
84501;BME280;74725;44.210;17.906;2024-03-02T03:03:33;97313.09;;;9.55;95.46
84501;BME280;74725;44.210;17.906;2024-03-02T03:05:59;97324.03;;;9.42;95.49
84501;BME280;74725;44.210;17.906;2024-03-02T03:08:24;97331.78;;;9.31;95.89
84501;BME280;74725;44.210;17.906;2024-03-02T03:10:50;97328.41;;;9.27;96.13
84501;BME280;74725;44.210;17.906;2024-03-02T03:13:16;97331.53;;;9.13;96.72
84501;BME280;74725;44.210;17.906;2024-03-02T03:15:42;97328.03;;;9.12;97.93
84501;BME280;74725;44.210;17.906;2024-03-02T03:18:07;97335.78;;;9.14;98.02
84501;BME280;74725;44.210;17.906;2024-03-02T03:20:33;97324.88;;;9.14;98.35
84501;BME280;74725;44.210;17.906;2024-03-02T03:22:59;97325.75;;;9.11;99.45
84501;BME280;74725;44.210;17.906;2024-03-02T03:25:25;97322.41;;;8.90;100.00
84501;BME280;74725;44.210;17.906;2024-03-02T03:27:51;97334.78;;;8.95;100.00
84501;BME280;74725;44.210;17.906;2024-03-02T03:30:19;97337.94;;;8.93;100.00
84501;BME280;74725;44.210;17.906;2024-03-02T03:32:45;97337.72;;;9.00;100.00
84501;BME280;74725;44.210;17.906;2024-03-02T03:35:11;97327.66;;;8.97;100.00
84501;BME280;74725;44.210;17.906;2024-03-02T03:37:38;97340.16;;;8.98;100.00
84501;BME280;74725;44.210;17.906;2024-03-02T03:40:04;97341.09;;;8.92;100.00
84501;BME280;74725;44.210;17.906;2024-03-02T03:42:38;97348.47;;;8.78;100.00
84501;BME280;74725;44.210;17.906;2024-03-02T03:45:07;97353.25;;;8.74;100.00
84501;BME280;74725;44.210;17.906;2024-03-02T03:47:33;97359.06;;;8.76;100.00
84501;BME280;74725;44.210;17.906;2024-03-02T03:49:59;97361.78;;;8.76;100.00
84501;BME280;74725;44.210;17.906;2024-03-02T03:52:24;97347.69;;;8.78;100.00
84501;BME280;74725;44.210;17.906;2024-03-02T03:54:50;97359.38;;;8.78;100.00
84501;BME280;74725;44.210;17.906;2024-03-02T03:57:16;97354.72;;;8.79;100.00
84501;BME280;74725;44.210;17.906;2024-03-02T03:59:42;97361.97;;;8.69;100.00
84501;BME280;74725;44.210;17.906;2024-03-02T04:02:08;97362.75;;;8.70;100.00
84501;BME280;74725;44.210;17.906;2024-03-02T04:04:34;97368.91;;;8.57;100.00
84501;BME280;74725;44.210;17.906;2024-03-02T04:07:00;97378.88;;;8.64;100.00
84501;BME280;74725;44.210;17.906;2024-03-02T04:09:26;97370.13;;;8.56;100.00
84501;BME280;74725;44.210;17.906;2024-03-02T04:11:51;97375.72;;;8.66;100.00
84501;BME280;74725;44.210;17.906;2024-03-02T04:14:17;97373.00;;;8.66;100.00
84501;BME280;74725;44.210;17.906;2024-03-02T04:16:43;97389.03;;;8.64;100.00
84501;BME280;74725;44.210;17.906;2024-03-02T04:19:08;97383.22;;;8.62;100.00
84501;BME280;74725;44.210;17.906;2024-03-02T04:21:34;97386.31;;;8.64;100.00
84501;BME280;74725;44.210;17.906;2024-03-02T04:23:59;97382.69;;;8.67;100.00
84501;BME280;74725;44.210;17.906;2024-03-02T04:26:26;97382.28;;;8.68;100.00
84501;BME280;74725;44.210;17.906;2024-03-02T04:28:52;97394.16;;;8.62;100.00
84501;BME280;74725;44.210;17.906;2024-03-02T04:31:18;97399.59;;;8.62;100.00
84501;BME280;74725;44.210;17.906;2024-03-02T04:33:43;97392.63;;;8.61;100.00
84501;BME280;74725;44.210;17.906;2024-03-02T04:36:09;97402.34;;;8.45;100.00
84501;BME280;74725;44.210;17.906;2024-03-02T04:38:35;97402.09;;;8.40;100.00
84501;BME280;74725;44.210;17.906;2024-03-02T04:41:01;97394.41;;;8.51;100.00
84501;BME280;74725;44.210;17.906;2024-03-02T04:43:26;97405.25;;;8.54;100.00
84501;BME280;74725;44.210;17.906;2024-03-02T04:45:52;97408.81;;;8.51;100.00
84501;BME280;74725;44.210;17.906;2024-03-02T04:48:18;97407.66;;;8.52;100.00
84501;BME280;74725;44.210;17.906;2024-03-02T04:50:44;97418.81;;;8.42;100.00
84501;BME280;74725;44.210;17.906;2024-03-02T04:53:10;97411.97;;;8.33;100.00
84501;BME280;74725;44.210;17.906;2024-03-02T04:55:35;97413.59;;;8.31;100.00
84501;BME280;74725;44.210;17.906;2024-03-02T04:58:07;97407.44;;;8.27;100.00
84501;BME280;74725;44.210;17.906;2024-03-02T05:00:33;97409.25;;;8.33;100.00
84501;BME280;74725;44.210;17.906;2024-03-02T05:02:58;97419.19;;;8.24;100.00
84501;BME280;74725;44.210;17.906;2024-03-02T05:05:24;97416.16;;;8.22;100.00
84501;BME280;74725;44.210;17.906;2024-03-02T05:07:50;97419.81;;;8.15;100.00
84501;BME280;74725;44.210;17.906;2024-03-02T05:10:16;97423.59;;;8.01;100.00
84501;BME280;74725;44.210;17.906;2024-03-02T05:12:42;97430.47;;;8.09;100.00
84501;BME280;74725;44.210;17.906;2024-03-02T05:15:08;97424.56;;;8.11;100.00
84501;BME280;74725;44.210;17.906;2024-03-02T05:17:36;97428.41;;;8.14;100.00
84501;BME280;74725;44.210;17.906;2024-03-02T05:20:02;97431.41;;;8.19;100.00
84501;BME280;74725;44.210;17.906;2024-03-02T05:22:29;97435.03;;;8.13;100.00
84501;BME280;74725;44.210;17.906;2024-03-02T05:24:54;97438.13;;;8.15;100.00
84501;BME280;74725;44.210;17.906;2024-03-02T05:27:20;97426.28;;;8.21;100.00
84501;BME280;74725;44.210;17.906;2024-03-02T05:29:46;97438.91;;;8.15;100.00
84501;BME280;74725;44.210;17.906;2024-03-02T05:32:12;97446.31;;;8.15;100.00
84501;BME280;74725;44.210;17.906;2024-03-02T05:34:37;97444.84;;;8.10;100.00
84501;BME280;74725;44.210;17.906;2024-03-02T05:37:03;97452.00;;;8.04;100.00
84501;BME280;74725;44.210;17.906;2024-03-02T05:39:29;97457.44;;;7.88;100.00
84501;BME280;74725;44.210;17.906;2024-03-02T05:41:54;97449.16;;;7.91;100.00
84501;BME280;74725;44.210;17.906;2024-03-02T05:44:20;97456.91;;;7.93;100.00
84501;BME280;74725;44.210;17.906;2024-03-02T05:46:46;97449.69;;;7.86;100.00
84501;BME280;74725;44.210;17.906;2024-03-02T05:49:11;97457.56;;;7.80;100.00
84501;BME280;74725;44.210;17.906;2024-03-02T05:51:37;97461.44;;;7.99;100.00
84501;BME280;74725;44.210;17.906;2024-03-02T05:54:02;97452.19;;;8.13;100.00
84501;BME280;74725;44.210;17.906;2024-03-02T05:56:28;97465.31;;;8.18;100.00
84501;BME280;74725;44.210;17.906;2024-03-02T05:58:54;97462.16;;;8.20;100.00
84501;BME280;74725;44.210;17.906;2024-03-02T06:04:10;97466.19;;;8.48;99.60
84501;BME280;74725;44.210;17.906;2024-03-02T06:06:41;97472.63;;;8.57;98.47
84501;BME280;74725;44.210;17.906;2024-03-02T06:09:07;97468.66;;;8.75;97.99
84501;BME280;74725;44.210;17.906;2024-03-02T06:11:39;97470.81;;;8.84;97.45
84501;BME280;74725;44.210;17.906;2024-03-02T06:14:08;97474.47;;;8.93;97.11
84501;BME280;74725;44.210;17.906;2024-03-02T06:16:34;97479.06;;;8.96;96.39
84501;BME280;74725;44.210;17.906;2024-03-02T06:19:00;97475.97;;;9.11;95.70
84501;BME280;74725;44.210;17.906;2024-03-02T06:21:27;97479.88;;;9.10;95.91
84501;BME280;74725;44.210;17.906;2024-03-02T06:23:53;97477.63;;;9.21;95.49
84501;BME280;74725;44.210;17.906;2024-03-02T06:26:19;97480.53;;;9.30;95.54
84501;BME280;74725;44.210;17.906;2024-03-02T06:28:45;97479.78;;;9.29;95.61
84501;BME280;74725;44.210;17.906;2024-03-02T06:31:11;97482.19;;;9.40;95.14
84501;BME280;74725;44.210;17.906;2024-03-02T06:33:36;97483.44;;;9.52;95.07
84501;BME280;74725;44.210;17.906;2024-03-02T06:36:02;97477.47;;;9.70;94.04
84501;BME280;74725;44.210;17.906;2024-03-02T06:38:28;97480.56;;;9.72;94.65
84501;BME280;74725;44.210;17.906;2024-03-02T06:40:54;97482.75;;;9.77;94.82
84501;BME280;74725;44.210;17.906;2024-03-02T06:43:21;97469.09;;;9.90;94.67
84501;BME280;74725;44.210;17.906;2024-03-02T06:45:50;97478.59;;;9.85;93.93
84501;BME280;74725;44.210;17.906;2024-03-02T06:48:18;97479.63;;;10.04;93.73
84501;BME280;74725;44.210;17.906;2024-03-02T06:50:46;97483.09;;;10.17;93.43
84501;BME280;74725;44.210;17.906;2024-03-02T06:53:13;97490.81;;;10.35;92.12
84501;BME280;74725;44.210;17.906;2024-03-02T06:55:38;97484.56;;;10.47;91.23
84501;BME280;74725;44.210;17.906;2024-03-02T06:58:04;97487.06;;;10.55;90.47
84501;BME280;74725;44.210;17.906;2024-03-02T07:00:30;97495.19;;;10.58;90.11
84501;BME280;74725;44.210;17.906;2024-03-02T07:02:55;97492.75;;;10.73;89.80
84501;BME280;74725;44.210;17.906;2024-03-02T07:05:21;97488.81;;;10.74;89.80
84501;BME280;74725;44.210;17.906;2024-03-02T07:07:46;97493.72;;;10.79;89.34
84501;BME280;74725;44.210;17.906;2024-03-02T07:10:12;97484.50;;;10.86;89.24
84501;BME280;74725;44.210;17.906;2024-03-02T07:12:38;97492.59;;;10.89;88.97
84501;BME280;74725;44.210;17.906;2024-03-02T07:15:04;97491.50;;;10.87;90.20
84501;BME280;74725;44.210;17.906;2024-03-02T07:17:32;97490.41;;;10.97;89.54
84501;BME280;74725;44.210;17.906;2024-03-02T07:19:58;97490.16;;;11.04;88.46
84501;BME280;74725;44.210;17.906;2024-03-02T07:22:23;97484.63;;;11.17;88.00
84501;BME280;74725;44.210;17.906;2024-03-02T07:24:49;97490.69;;;11.12;88.75
84501;BME280;74725;44.210;17.906;2024-03-02T07:27:16;97494.91;;;11.25;88.19
84501;BME280;74725;44.210;17.906;2024-03-02T07:29:42;97487.44;;;11.26;88.84
84501;BME280;74725;44.210;17.906;2024-03-02T07:32:08;97479.97;;;11.26;88.79
84501;BME280;74725;44.210;17.906;2024-03-02T07:34:34;97488.81;;;11.43;87.46
84501;BME280;74725;44.210;17.906;2024-03-02T07:37:00;97485.13;;;11.59;88.19
84501;BME280;74725;44.210;17.906;2024-03-02T07:39:26;97492.75;;;11.64;87.10
84501;BME280;74725;44.210;17.906;2024-03-02T07:41:52;97486.84;;;11.66;87.65
84501;BME280;74725;44.210;17.906;2024-03-02T07:44:18;97486.84;;;11.88;88.13
84501;BME280;74725;44.210;17.906;2024-03-02T07:46:48;97492.69;;;11.99;85.88
84501;BME280;74725;44.210;17.906;2024-03-02T07:49:17;97487.53;;;12.01;85.75
84501;BME280;74725;44.210;17.906;2024-03-02T07:51:43;97491.66;;;12.06;85.75
84501;BME280;74725;44.210;17.906;2024-03-02T07:54:09;97489.84;;;12.12;85.00
84501;BME280;74725;44.210;17.906;2024-03-02T07:56:34;97488.56;;;12.26;83.13
84501;BME280;74725;44.210;17.906;2024-03-02T07:59:03;97480.06;;;12.33;82.90
84501;BME280;74725;44.210;17.906;2024-03-02T08:01:30;97484.81;;;12.41;81.98
84501;BME280;74725;44.210;17.906;2024-03-02T08:04:00;97483.63;;;12.52;81.83
84501;BME280;74725;44.210;17.906;2024-03-02T08:06:26;97482.28;;;12.65;82.17
84501;BME280;74725;44.210;17.906;2024-03-02T08:08:59;97485.34;;;12.67;80.90
84501;BME280;74725;44.210;17.906;2024-03-02T08:11:25;97493.75;;;12.73;81.21
84501;BME280;74725;44.210;17.906;2024-03-02T08:13:50;97488.00;;;12.89;80.97
84501;BME280;74725;44.210;17.906;2024-03-02T08:16:18;97479.91;;;13.04;80.15
84501;BME280;74725;44.210;17.906;2024-03-02T08:18:50;97485.13;;;13.02;79.99
84501;BME280;74725;44.210;17.906;2024-03-02T08:21:15;97489.22;;;13.07;79.59
84501;BME280;74725;44.210;17.906;2024-03-02T08:23:42;97474.59;;;13.19;81.62
84501;BME280;74725;44.210;17.906;2024-03-02T08:26:08;97485.56;;;13.19;79.30
84501;BME280;74725;44.210;17.906;2024-03-02T08:28:34;97482.69;;;13.32;79.31
84501;BME280;74725;44.210;17.906;2024-03-02T08:31:00;97485.91;;;13.39;79.11
84501;BME280;74725;44.210;17.906;2024-03-02T08:33:25;97485.00;;;13.33;79.54
84501;BME280;74725;44.210;17.906;2024-03-02T08:35:51;97487.28;;;13.35;79.62
84501;BME280;74725;44.210;17.906;2024-03-02T08:38:17;97482.38;;;13.57;78.73
84501;BME280;74725;44.210;17.906;2024-03-02T08:40:43;97474.91;;;13.67;78.30
84501;BME280;74725;44.210;17.906;2024-03-02T08:43:09;97477.75;;;13.82;78.38
84501;BME280;74725;44.210;17.906;2024-03-02T08:45:35;97473.66;;;13.86;78.54
84501;BME280;74725;44.210;17.906;2024-03-02T08:48:01;97472.41;;;13.87;77.25
84501;BME280;74725;44.210;17.906;2024-03-02T08:50:26;97462.38;;;14.17;75.96
84501;BME280;74725;44.210;17.906;2024-03-02T08:52:52;97474.75;;;14.22;76.33
84501;BME280;74725;44.210;17.906;2024-03-02T08:55:18;97464.78;;;14.25;75.44
84501;BME280;74725;44.210;17.906;2024-03-02T08:57:43;97466.50;;;14.22;76.17
84501;BME280;74725;44.210;17.906;2024-03-02T09:00:09;97468.28;;;14.34;75.84
84501;BME280;74725;44.210;17.906;2024-03-02T09:02:35;97465.31;;;14.47;76.50
84501;BME280;74725;44.210;17.906;2024-03-02T09:05:01;97460.81;;;14.59;75.37
84501;BME280;74725;44.210;17.906;2024-03-02T09:07:27;97461.84;;;14.71;75.41
84501;BME280;74725;44.210;17.906;2024-03-02T09:09:52;97461.44;;;14.87;75.65
84501;BME280;74725;44.210;17.906;2024-03-02T09:12:18;97465.41;;;14.86;73.68
84501;BME280;74725;44.210;17.906;2024-03-02T09:14:44;97468.13;;;14.95;73.54
84501;BME280;74725;44.210;17.906;2024-03-02T09:17:11;97458.38;;;15.09;73.39
84501;BME280;74725;44.210;17.906;2024-03-02T09:19:38;97459.16;;;15.24;72.99
84501;BME280;74725;44.210;17.906;2024-03-02T09:22:03;97460.50;;;15.29;72.71
84501;BME280;74725;44.210;17.906;2024-03-02T09:24:31;97455.97;;;15.40;73.60
84501;BME280;74725;44.210;17.906;2024-03-02T09:26:57;97451.22;;;15.56;69.94
84501;BME280;74725;44.210;17.906;2024-03-02T09:29:22;97456.97;;;15.67;68.38
84501;BME280;74725;44.210;17.906;2024-03-02T09:31:48;97461.38;;;15.74;69.61
84501;BME280;74725;44.210;17.906;2024-03-02T09:34:14;97454.41;;;15.78;68.27
84501;BME280;74725;44.210;17.906;2024-03-02T09:36:41;97453.66;;;15.93;68.51
84501;BME280;74725;44.210;17.906;2024-03-02T09:39:10;97454.31;;;16.02;68.91
84501;BME280;74725;44.210;17.906;2024-03-02T09:41:36;97460.31;;;16.16;65.95
84501;BME280;74725;44.210;17.906;2024-03-02T09:44:02;97450.59;;;16.20;64.00
84501;BME280;74725;44.210;17.906;2024-03-02T09:46:28;97450.84;;;16.22;62.25
84501;BME280;74725;44.210;17.906;2024-03-02T09:48:54;97444.09;;;16.38;63.70
84501;BME280;74725;44.210;17.906;2024-03-02T09:51:20;97446.06;;;16.37;65.03
84501;BME280;74725;44.210;17.906;2024-03-02T09:53:47;97428.69;;;16.52;64.12
84501;BME280;74725;44.210;17.906;2024-03-02T09:56:13;97434.88;;;16.61;62.09
84501;BME280;74725;44.210;17.906;2024-03-02T09:58:39;97435.66;;;16.82;63.72
84501;BME280;74725;44.210;17.906;2024-03-02T10:01:08;97433.19;;;16.84;62.55
84501;BME280;74725;44.210;17.906;2024-03-02T10:03:36;97435.84;;;16.99;61.80
84501;BME280;74725;44.210;17.906;2024-03-02T10:06:24;97438.97;;;17.07;62.70
84501;BME280;74725;44.210;17.906;2024-03-02T10:08:51;97433.56;;;17.18;61.53
84501;BME280;74725;44.210;17.906;2024-03-02T10:11:30;97431.63;;;17.24;61.48
84501;BME280;74725;44.210;17.906;2024-03-02T10:14:11;97420.94;;;17.38;60.81
84501;BME280;74725;44.210;17.906;2024-03-02T10:16:39;97421.06;;;17.49;60.79
84501;BME280;74725;44.210;17.906;2024-03-02T10:19:24;97423.69;;;17.58;60.85
84501;BME280;74725;44.210;17.906;2024-03-02T10:21:53;97422.78;;;17.72;61.15
84501;BME280;74725;44.210;17.906;2024-03-02T10:24:20;97411.41;;;17.91;60.77
84501;BME280;74725;44.210;17.906;2024-03-02T10:26:47;97414.22;;;17.96;58.54
84501;BME280;74725;44.210;17.906;2024-03-02T10:29:13;97416.72;;;17.94;56.69
84501;BME280;74725;44.210;17.906;2024-03-02T10:31:40;97408.28;;;18.09;56.70
84501;BME280;74725;44.210;17.906;2024-03-02T10:34:06;97411.88;;;18.21;56.23
84501;BME280;74725;44.210;17.906;2024-03-02T10:36:33;97405.63;;;18.26;55.64
84501;BME280;74725;44.210;17.906;2024-03-02T10:39:04;97404.56;;;18.18;54.09
84501;BME280;74725;44.210;17.906;2024-03-02T10:41:39;97402.84;;;18.26;56.54
84501;BME280;74725;44.210;17.906;2024-03-02T10:44:07;97399.63;;;18.39;54.14
84501;BME280;74725;44.210;17.906;2024-03-02T10:46:34;97396.56;;;18.31;52.92
84501;BME280;74725;44.210;17.906;2024-03-02T10:49:01;97397.97;;;18.52;54.75
84501;BME280;74725;44.210;17.906;2024-03-02T10:51:29;97386.41;;;18.60;54.92
84501;BME280;74725;44.210;17.906;2024-03-02T10:53:58;97387.53;;;18.79;57.48
84501;BME280;74725;44.210;17.906;2024-03-02T10:56:32;97386.56;;;18.82;56.05
84501;BME280;74725;44.210;17.906;2024-03-02T10:59:04;97384.34;;;19.03;55.78
84501;BME280;74725;44.210;17.906;2024-03-02T11:01:32;97381.13;;;19.21;53.65
84501;BME280;74725;44.210;17.906;2024-03-02T11:03:59;97381.59;;;19.20;52.91
84501;BME280;74725;44.210;17.906;2024-03-02T11:06:28;97376.59;;;19.29;51.58
84501;BME280;74725;44.210;17.906;2024-03-02T11:08:55;97377.88;;;19.51;52.73
84501;BME280;74725;44.210;17.906;2024-03-02T11:11:30;97369.59;;;19.73;52.79
84501;BME280;74725;44.210;17.906;2024-03-02T11:14:01;97367.09;;;19.98;52.59
84501;BME280;74725;44.210;17.906;2024-03-02T11:16:37;97370.59;;;20.10;49.49
84501;BME280;74725;44.210;17.906;2024-03-02T11:19:12;97364.72;;;20.36;50.19
84501;BME280;74725;44.210;17.906;2024-03-02T11:21:39;97355.81;;;20.60;46.58
84501;BME280;74725;44.210;17.906;2024-03-02T11:24:29;97362.56;;;20.87;48.17
84501;BME280;74725;44.210;17.906;2024-03-02T11:27:05;97362.66;;;21.17;47.82
84501;BME280;74725;44.210;17.906;2024-03-02T11:32:16;97367.28;;;21.86;42.30
84501;BME280;74725;44.210;17.906;2024-03-02T11:34:42;97358.75;;;22.03;40.75
84501;BME280;74725;44.210;17.906;2024-03-02T11:37:16;97353.75;;;22.50;42.97
84501;BME280;74725;44.210;17.906;2024-03-02T11:39:44;97355.97;;;22.76;40.58
84501;BME280;74725;44.210;17.906;2024-03-02T11:42:11;97350.97;;;23.12;42.24
84501;BME280;74725;44.210;17.906;2024-03-02T11:44:37;97352.31;;;23.25;36.91
84501;BME280;74725;44.210;17.906;2024-03-02T11:47:08;97349.25;;;23.09;37.62
84501;BME280;74725;44.210;17.906;2024-03-02T11:52:06;97345.78;;;22.60;39.16
84501;BME280;74725;44.210;17.906;2024-03-02T11:54:33;97342.47;;;22.80;39.88
84501;BME280;74725;44.210;17.906;2024-03-02T11:57:09;97341.06;;;22.74;38.29
84501;BME280;74725;44.210;17.906;2024-03-02T11:59:34;97336.66;;;22.59;38.66
84501;BME280;74725;44.210;17.906;2024-03-02T12:02:01;97338.81;;;22.48;40.30
84501;BME280;74725;44.210;17.906;2024-03-02T12:04:29;97339.06;;;22.50;38.16
84501;BME280;74725;44.210;17.906;2024-03-02T12:07:01;97336.41;;;22.57;39.10
84501;BME280;74725;44.210;17.906;2024-03-02T12:09:27;97331.25;;;22.86;37.36
84501;BME280;74725;44.210;17.906;2024-03-02T12:12:03;97323.81;;;22.94;37.64
84501;BME280;74725;44.210;17.906;2024-03-02T12:14:30;97325.13;;;22.87;38.73
84501;BME280;74725;44.210;17.906;2024-03-02T12:16:55;97317.72;;;22.71;38.45
84501;BME280;74725;44.210;17.906;2024-03-02T12:19:21;97330.06;;;22.81;41.61
84501;BME280;74725;44.210;17.906;2024-03-02T12:21:47;97321.38;;;22.85;41.33
84501;BME280;74725;44.210;17.906;2024-03-02T12:24:13;97324.59;;;22.70;39.40
84501;BME280;74725;44.210;17.906;2024-03-02T12:26:38;97326.41;;;22.67;39.21
84501;BME280;74725;44.210;17.906;2024-03-02T12:29:04;97314.50;;;22.67;39.75
84501;BME280;74725;44.210;17.906;2024-03-02T12:31:30;97328.44;;;22.67;39.80
84501;BME280;74725;44.210;17.906;2024-03-02T12:33:56;97321.81;;;22.70;38.21
84501;BME280;74725;44.210;17.906;2024-03-02T12:36:22;97329.31;;;22.56;38.72
84501;BME280;74725;44.210;17.906;2024-03-02T12:38:47;97330.69;;;22.50;37.38
84501;BME280;74725;44.210;17.906;2024-03-02T12:41:16;97334.81;;;22.18;36.73
84501;BME280;74725;44.210;17.906;2024-03-02T12:43:42;97329.88;;;21.45;39.14
84501;BME280;74725;44.210;17.906;2024-03-02T12:46:07;97336.97;;;20.94;40.69
84501;BME280;74725;44.210;17.906;2024-03-02T12:48:34;97332.09;;;20.53;42.70
84501;BME280;74725;44.210;17.906;2024-03-02T12:51:01;97334.88;;;20.53;44.23
84501;BME280;74725;44.210;17.906;2024-03-02T12:53:27;97332.81;;;20.65;42.86
84501;BME280;74725;44.210;17.906;2024-03-02T12:55:53;97340.78;;;20.10;43.95
84501;BME280;74725;44.210;17.906;2024-03-02T12:58:20;97345.03;;;19.21;51.06
84501;BME280;74725;44.210;17.906;2024-03-02T13:00:48;97359.28;;;18.75;53.97